Terminal Aerodrome Forecast
Issued by NWS

Home | Current Version | Previous Version | Text Only | Print | Product List | Glossary On
Versions: 1 2 3 4 5 6 7 8 9 10 11 12 13 14 15 16 17 18 19
000
FTUS42 KFFC 191700 CCA
TAFPDK
TAF COR
KPDK 191753Z 1918/2018 10008KT P6SM SCT035
      TEMPO 1918/1920 BKN029
     FM200100 08003KT P6SM FEW060
     FM200900 09004KT P6SM BKN015
     FM201500 08009G15KT P6SM SCT035=

USA.gov is the U.S. government's official web portal to all federal, state and local government web resources and services.